Time;durP1;ratioP1;P1;durP2;ratioP2;P2;SDS_P1;SDS_P2;PMS_P1;PMS_P2;Temp;Humidity;BMP_temperature;BMP_pressure;BME280_temperature;BME280_humidity;BME280_pressure;Samples;Min_cycle;Max_cycle;Signal;HPM_P1;HPM_P2
2022/08/31 00:06:03;;;;;;;;;;;18.40;99.90;;;;;;5071154;28;19920;-76
2022/08/31 00:08:29;;;;;;;;;;;18.20;99.90;;;;;;5072586;28;19909;-76
2022/08/31 00:10:55;;;;;;;;;;;18.30;99.90;;;;;;5072335;28;19924;-76
2022/08/31 00:13:21;;;;;;;;;;;18.20;99.90;;;;;;5072007;28;19908;-76
2022/08/31 00:15:47;;;;;;;;;;;18.30;99.90;;;;;;5072220;28;19942;-77
2022/08/31 00:18:13;;;;;;;;;;;18.30;99.90;;;;;;5071056;28;19909;-78
2022/08/31 00:20:39;;;;;;;;;;;18.30;99.90;;;;;;5072237;28;19909;-76
2022/08/31 00:23:06;;;;;;;;;;;18.30;99.90;;;;;;5072160;28;19920;-80
2022/08/31 00:25:32;;;;;;;;;;;18.30;99.90;;;;;;5072583;28;19909;-77
2022/08/31 00:27:58;;;;;;;;;;;18.30;99.90;;;;;;5070749;28;19920;-76
2022/08/31 00:30:24;;;;;;;;;;;18.30;99.90;;;;;;5071920;28;19942;-76
2022/08/31 00:32:49;;;;;;;;;;;18.40;99.90;;;;;;5071812;28;19962;-76
2022/08/31 00:35:15;;;;;;;;;;;18.50;99.90;;;;;;5071750;28;19912;-76
2022/08/31 00:37:40;;;;;;;;;;;18.70;99.90;;;;;;5070561;28;19958;-75
2022/08/31 00:40:06;;;;;;;;;;;18.70;99.90;;;;;;5070755;28;19912;-77
2022/08/31 00:42:32;;;;;;;;;;;18.60;99.90;;;;;;5070896;28;20324;-76
2022/08/31 00:44:57;;;;;;;;;;;18.50;99.90;;;;;;5071564;28;19912;-78
2022/08/31 00:47:23;;;;;;;;;;;18.50;99.90;;;;;;5071848;28;19916;-76
2022/08/31 00:49:50;;;;;;;;;;;18.40;99.90;;;;;;5071781;28;20270;-76
2022/08/31 00:52:19;;;;;;;;;;;18.20;99.90;;;;;;5070260;28;20373;-77
2022/08/31 00:54:53;;;;;;;;;;;18.10;99.90;;;;;;5071291;28;20365;-76
2022/08/31 00:57:19;;;;;;;;;;;17.90;99.90;;;;;;5072100;28;19977;-76
2022/08/31 00:59:46;;;;;;;;;;;17.80;99.90;;;;;;5071631;28;19915;-76
2022/08/31 01:02:11;;;;;;;;;;;17.70;99.90;;;;;;5071649;28;20358;-76
2022/08/31 01:04:37;;;;;;;;;;;17.50;99.90;;;;;;5071307;28;19914;-76
2022/08/31 01:07:05;;;;;;;;;;;17.30;99.90;;;;;;5070210;28;19912;-76
2022/08/31 01:09:31;;;;;;;;;;;17.10;99.90;;;;;;5071542;28;19928;-75
2022/08/31 01:11:57;;;;;;;;;;;16.60;99.90;;;;;;5071564;28;19916;-75
2022/08/31 01:14:23;;;;;;;;;;;16.50;99.90;;;;;;5071027;28;20359;-75
2022/08/31 01:16:50;;;;;;;;;;;16.40;99.90;;;;;;5071484;28;19915;-75
2022/08/31 01:19:24;;;;;;;;;;;16.30;99.90;;;;;;5068264;28;19985;-75
2022/08/31 01:21:55;;;;;;;;;;;16.30;99.90;;;;;;5067386;28;19909;-75
2022/08/31 01:24:22;;;;;;;;;;;16.20;99.90;;;;;;5071236;28;20431;-75
2022/08/31 01:26:48;;;;;;;;;;;16.20;99.90;;;;;;5071385;28;19916;-75
2022/08/31 01:29:13;;;;;;;;;;;16.20;99.90;;;;;;5070257;28;20437;-75
2022/08/31 01:31:43;;;;;;;;;;;16.10;99.90;;;;;;5071224;28;20324;-76
2022/08/31 01:34:09;;;;;;;;;;;16.00;99.90;;;;;;5070908;28;19916;-76
2022/08/31 01:36:35;;;;;;;;;;;16.00;99.90;;;;;;5071140;28;19913;-76
2022/08/31 01:39:02;;;;;;;;;;;15.80;99.90;;;;;;5071583;28;19917;-75
2022/08/31 01:41:27;;;;;;;;;;;15.60;99.90;;;;;;5071232;28;20270;-75
2022/08/31 01:43:53;;;;;;;;;;;15.50;99.90;;;;;;5069705;28;19931;-76
2022/08/31 01:46:19;;;;;;;;;;;15.60;99.90;;;;;;5071423;28;20006;-78
2022/08/31 01:48:45;;;;;;;;;;;15.50;99.90;;;;;;5070620;28;20458;-75
2022/08/31 01:51:11;;;;;;;;;;;15.40;99.90;;;;;;5071207;28;19912;-76
2022/08/31 01:53:37;;;;;;;;;;;15.40;99.90;;;;;;5070859;28;19912;-77
2022/08/31 01:56:02;;;;;;;;;;;15.30;99.90;;;;;;5071390;28;19915;-75
2022/08/31 01:58:28;;;;;;;;;;;15.30;99.90;;;;;;5071274;28;19908;-75
2022/08/31 02:00:53;;;;;;;;;;;15.30;99.90;;;;;;5070011;28;19959;-77
2022/08/31 02:03:19;;;;;;;;;;;15.30;99.90;;;;;;5070326;28;19908;-76
2022/08/31 02:05:44;;;;;;;;;;;15.30;99.90;;;;;;5070910;28;19912;-75
2022/08/31 02:08:10;;;;;;;;;;;15.40;99.90;;;;;;5071166;28;19912;-75
2022/08/31 02:10:36;;;;;;;;;;;15.40;99.90;;;;;;5070948;28;20331;-77
2022/08/31 02:13:01;;;;;;;;;;;15.40;99.90;;;;;;5070909;28;19909;-76
2022/08/31 02:15:27;;;;;;;;;;;15.50;99.90;;;;;;5071081;28;19909;-75
2022/08/31 02:17:52;;;;;;;;;;;15.50;99.90;;;;;;5071169;28;19969;-75
2022/08/31 02:20:19;;;;;;;;;;;15.50;99.90;;;;;;5070980;28;20015;-75
2022/08/31 02:22:46;;;;;;;;;;;15.50;99.90;;;;;;5070808;28;20009;-76
2022/08/31 02:25:11;;;;;;;;;;;15.50;99.90;;;;;;5069363;28;19909;-75
2022/08/31 02:27:37;;;;;;;;;;;15.50;99.90;;;;;;5055265;28;19912;-75
2022/08/31 02:30:04;;;;;;;;;;;15.50;99.90;;;;;;5072451;28;19916;-75
2022/08/31 02:32:29;;;;;;;;;;;15.50;99.90;;;;;;5075176;28;19916;-75
2022/08/31 02:34:55;;;;;;;;;;;15.50;99.90;;;;;;5082813;28;19908;-77
2022/08/31 02:37:20;;;;;;;;;;;15.50;99.90;;;;;;5078081;28;20431;-75
2022/08/31 02:39:46;;;;;;;;;;;15.50;99.90;;;;;;5073324;28;19995;-78
2022/08/31 02:42:11;;;;;;;;;;;15.50;99.90;;;;;;5074194;28;19919;-75
2022/08/31 02:44:37;;;;;;;;;;;15.50;99.90;;;;;;5074268;28;19909;-75
2022/08/31 02:47:02;;;;;;;;;;;15.50;99.90;;;;;;5074190;28;19913;-76
2022/08/31 02:49:30;;;;;;;;;;;15.60;99.90;;;;;;5074222;28;19966;-75
2022/08/31 02:51:56;;;;;;;;;;;15.50;99.90;;;;;;5074099;28;20281;-75
2022/08/31 02:54:21;;;;;;;;;;;15.50;99.90;;;;;;5073916;28;19909;-75
2022/08/31 02:56:47;;;;;;;;;;;15.50;99.90;;;;;;5073910;28;19962;-75
2022/08/31 02:59:12;;;;;;;;;;;15.50;99.90;;;;;;5073987;28;19908;-75
2022/08/31 03:01:38;;;;;;;;;;;15.50;99.90;;;;;;5073883;28;19909;-75
2022/08/31 03:04:04;;;;;;;;;;;15.50;99.90;;;;;;5078130;28;20278;-75
2022/08/31 03:06:30;;;;;;;;;;;15.50;99.90;;;;;;5073632;28;19973;-75
2022/08/31 03:08:56;;;;;;;;;;;15.40;99.90;;;;;;5073585;28;19908;-75
2022/08/31 03:11:22;;;;;;;;;;;15.40;99.90;;;;;;5073557;28;19916;-75
2022/08/31 03:13:47;;;;;;;;;;;15.30;99.90;;;;;;5073385;28;19908;-75
2022/08/31 03:16:14;;;;;;;;;;;15.30;99.90;;;;;;5073644;28;19915;-75
2022/08/31 03:18:40;;;;;;;;;;;15.40;99.90;;;;;;5073616;28;19915;-75
2022/08/31 03:21:06;;;;;;;;;;;15.40;99.90;;;;;;5073455;28;19913;-75
2022/08/31 03:23:31;;;;;;;;;;;15.30;99.90;;;;;;5073069;28;19962;-77
2022/08/31 03:25:57;;;;;;;;;;;15.40;99.90;;;;;;5073404;28;19917;-75
2022/08/31 03:28:23;;;;;;;;;;;15.30;99.90;;;;;;5073339;28;19985;-75
2022/08/31 03:30:48;;;;;;;;;;;15.40;99.90;;;;;;5073233;28;20369;-75
2022/08/31 03:33:14;;;;;;;;;;;15.40;99.90;;;;;;5072845;28;19954;-75
2022/08/31 03:35:43;;;;;;;;;;;15.30;99.90;;;;;;5072975;28;19908;-78
2022/08/31 03:38:11;;;;;;;;;;;15.40;99.90;;;;;;5071857;28;19909;-75
2022/08/31 03:40:37;;;;;;;;;;;15.30;99.90;;;;;;5073225;28;19916;-75
2022/08/31 03:43:03;;;;;;;;;;;15.30;99.90;;;;;;5072878;28;19999;-75
2022/08/31 03:45:30;;;;;;;;;;;15.30;99.90;;;;;;5073125;28;19957;-75
2022/08/31 03:47:58;;;;;;;;;;;15.30;99.90;;;;;;5075055;28;20353;-75
2022/08/31 03:50:24;;;;;;;;;;;15.30;99.90;;;;;;5076446;28;19916;-75
2022/08/31 03:52:49;;;;;;;;;;;15.40;99.90;;;;;;5077161;28;19937;-74
2022/08/31 03:55:15;;;;;;;;;;;15.40;99.90;;;;;;5077305;28;19962;-75
2022/08/31 03:57:41;;;;;;;;;;;15.40;99.90;;;;;;5077281;28;19912;-74
2022/08/31 04:00:07;;;;;;;;;;;15.40;99.90;;;;;;5077539;28;19908;-75
2022/08/31 04:02:35;;;;;;;;;;;15.30;99.90;;;;;;5075035;28;19909;-74
2022/08/31 04:05:00;;;;;;;;;;;15.40;99.90;;;;;;5079391;28;19962;-75
2022/08/31 04:07:26;;;;;;;;;;;15.40;99.90;;;;;;5075548;28;19916;-75
2022/08/31 04:09:51;;;;;;;;;;;15.30;99.90;;;;;;5073410;28;20290;-75
2022/08/31 04:12:17;;;;;;;;;;;15.30;99.90;;;;;;5073001;28;20385;-75
2022/08/31 04:14:43;;;;;;;;;;;15.30;99.90;;;;;;5072307;28;19908;-75
2022/08/31 04:17:10;;;;;;;;;;;15.20;99.90;;;;;;5072360;28;19908;-75
2022/08/31 04:19:35;;;;;;;;;;;15.20;99.90;;;;;;5072304;28;19908;-75
2022/08/31 04:22:01;;;;;;;;;;;15.10;99.90;;;;;;5072312;28;20008;-75
2022/08/31 04:24:28;;;;;;;;;;;15.10;99.90;;;;;;5072196;28;19912;-75
2022/08/31 04:26:53;;;;;;;;;;;15.10;99.90;;;;;;5072433;28;20382;-75
2022/08/31 04:29:19;;;;;;;;;;;15.10;99.90;;;;;;5071918;28;19961;-75
2022/08/31 04:31:46;;;;;;;;;;;15.10;99.90;;;;;;5068887;28;19920;-75
2022/08/31 04:34:11;;;;;;;;;;;15.00;99.90;;;;;;5066924;28;20393;-75
2022/08/31 04:36:37;;;;;;;;;;;15.00;99.90;;;;;;5074646;28;19908;-76
2022/08/31 04:39:03;;;;;;;;;;;15.00;99.90;;;;;;5071694;28;20273;-77
2022/08/31 04:41:30;;;;;;;;;;;15.00;99.90;;;;;;5071416;28;19987;-75
2022/08/31 04:43:56;;;;;;;;;;;15.00;99.90;;;;;;5071459;28;20281;-75
2022/08/31 04:46:22;;;;;;;;;;;15.00;99.90;;;;;;5071425;28;20353;-75
2022/08/31 04:48:48;;;;;;;;;;;15.00;99.90;;;;;;5071040;28;19935;-75
2022/08/31 04:51:18;;;;;;;;;;;15.00;99.90;;;;;;5071243;28;19915;-75
2022/08/31 04:53:44;;;;;;;;;;;15.00;99.90;;;;;;5071395;28;19957;-75
2022/08/31 04:56:15;;;;;;;;;;;15.00;99.90;;;;;;5071423;28;19913;-76
2022/08/31 04:58:42;;;;;;;;;;;15.00;99.90;;;;;;5071430;28;19909;-75
2022/08/31 05:01:08;;;;;;;;;;;15.00;99.90;;;;;;5069902;28;20010;-75
2022/08/31 05:03:34;;;;;;;;;;;15.00;99.90;;;;;;5070989;28;19908;-75
2022/08/31 05:05:59;;;;;;;;;;;15.10;99.90;;;;;;5068862;28;20015;-76
2022/08/31 05:08:26;;;;;;;;;;;15.10;99.90;;;;;;5065876;28;19909;-76
2022/08/31 05:10:52;;;;;;;;;;;15.10;99.90;;;;;;5071051;28;19916;-77
2022/08/31 05:13:17;;;;;;;;;;;15.10;99.90;;;;;;5071074;28;19915;-75
2022/08/31 05:15:43;;;;;;;;;;;15.10;99.90;;;;;;5071285;28;19908;-75
2022/08/31 05:18:09;;;;;;;;;;;15.00;99.90;;;;;;5071192;28;20317;-75
2022/08/31 05:20:34;;;;;;;;;;;15.00;99.90;;;;;;5071194;28;19909;-75
2022/08/31 05:23:00;;;;;;;;;;;15.10;99.90;;;;;;5071434;28;20342;-77
2022/08/31 05:25:26;;;;;;;;;;;15.10;99.90;;;;;;5070916;28;19909;-75
2022/08/31 05:27:53;;;;;;;;;;;15.10;99.90;;;;;;5070957;28;19912;-75
2022/08/31 05:30:19;;;;;;;;;;;15.00;99.90;;;;;;5070928;28;19916;-75
2022/08/31 05:32:45;;;;;;;;;;;15.10;99.90;;;;;;5070837;28;19913;-75
2022/08/31 05:35:11;;;;;;;;;;;15.00;99.90;;;;;;5071923;28;19909;-76
2022/08/31 05:37:36;;;;;;;;;;;15.00;99.90;;;;;;5070903;28;20335;-76
2022/08/31 05:40:02;;;;;;;;;;;15.00;99.90;;;;;;5070756;28;19908;-76
2022/08/31 05:42:28;;;;;;;;;;;15.10;99.90;;;;;;5070176;28;19923;-75
2022/08/31 05:44:53;;;;;;;;;;;15.10;99.90;;;;;;5070580;28;19912;-76
2022/08/31 05:47:19;;;;;;;;;;;15.10;99.90;;;;;;5070815;28;19913;-76
2022/08/31 05:49:45;;;;;;;;;;;15.10;99.90;;;;;;5069508;28;19909;-77
2022/08/31 05:52:12;;;;;;;;;;;15.00;99.90;;;;;;5069331;28;19908;-76
2022/08/31 05:54:38;;;;;;;;;;;15.00;99.90;;;;;;5070674;28;19915;-75
2022/08/31 05:57:04;;;;;;;;;;;15.00;99.90;;;;;;5070800;28;20374;-76
2022/08/31 05:59:30;;;;;;;;;;;15.00;99.90;;;;;;5070756;28;19916;-75
2022/08/31 06:01:55;;;;;;;;;;;15.10;99.90;;;;;;5073739;28;19905;-76
2022/08/31 06:04:21;;;;;;;;;;;15.00;99.90;;;;;;5078424;28;19908;-76
2022/08/31 06:06:46;;;;;;;;;;;15.00;99.90;;;;;;5074176;28;19912;-76
2022/08/31 06:09:12;;;;;;;;;;;15.00;99.90;;;;;;5073537;28;19917;-76
2022/08/31 06:11:40;;;;;;;;;;;15.00;99.90;;;;;;5074561;28;19935;-76
2022/08/31 06:14:08;;;;;;;;;;;15.10;99.90;;;;;;5074004;28;19915;-75
2022/08/31 06:16:34;;;;;;;;;;;15.10;99.90;;;;;;5074751;28;20263;-76
2022/08/31 06:19:02;;;;;;;;;;;15.00;99.90;;;;;;5074823;28;19951;-76
2022/08/31 06:21:35;;;;;;;;;;;15.00;99.90;;;;;;5074626;28;19955;-76
2022/08/31 06:24:03;;;;;;;;;;;15.00;99.90;;;;;;5073944;28;19908;-75
2022/08/31 06:26:29;;;;;;;;;;;15.00;99.90;;;;;;5074712;28;19913;-75
2022/08/31 06:28:56;;;;;;;;;;;15.00;99.90;;;;;;5074392;28;20083;-75
2022/08/31 06:31:25;;;;;;;;;;;15.10;99.90;;;;;;5074081;28;20351;-76
2022/08/31 06:33:51;;;;;;;;;;;15.10;99.90;;;;;;5072708;28;20362;-75
2022/08/31 06:36:18;;;;;;;;;;;15.00;99.90;;;;;;5074400;28;19932;-76
2022/08/31 06:38:44;;;;;;;;;;;14.90;99.90;;;;;;5074200;28;19908;-76
2022/08/31 06:41:11;;;;;;;;;;;15.00;99.90;;;;;;5072770;28;20420;-76
2022/08/31 06:43:36;;;;;;;;;;;15.00;99.90;;;;;;5067285;28;19912;-76
2022/08/31 06:46:02;;;;;;;;;;;15.10;99.90;;;;;;5072124;28;20396;-76
2022/08/31 06:48:27;;;;;;;;;;;15.10;99.90;;;;;;5068742;28;19967;-76
2022/08/31 06:50:57;;;;;;;;;;;15.10;99.90;;;;;;5068373;28;19909;-76
2022/08/31 06:53:22;;;;;;;;;;;15.10;99.90;;;;;;5067961;28;19909;-76
2022/08/31 06:55:47;;;;;;;;;;;15.00;99.90;;;;;;5071408;28;19912;-75
2022/08/31 06:58:13;;;;;;;;;;;15.00;99.90;;;;;;5073233;28;19970;-75
2022/08/31 07:00:39;;;;;;;;;;;15.10;99.90;;;;;;5070569;28;19909;-76
2022/08/31 07:03:21;;;;;;;;;;;15.10;99.90;;;;;;5064099;28;19974;-76
2022/08/31 07:05:47;;;;;;;;;;;15.10;99.90;;;;;;5071165;28;20011;-76
2022/08/31 07:08:13;;;;;;;;;;;15.10;99.90;;;;;;5070581;28;19913;-75
2022/08/31 07:10:38;;;;;;;;;;;15.20;99.90;;;;;;5071284;28;20285;-77
2022/08/31 07:13:04;;;;;;;;;;;15.30;99.90;;;;;;5072324;28;19917;-76
2022/08/31 07:15:29;;;;;;;;;;;15.20;99.90;;;;;;5067871;28;19930;-76
2022/08/31 07:17:55;;;;;;;;;;;15.40;99.90;;;;;;5078783;28;19912;-75
2022/08/31 07:20:20;;;;;;;;;;;15.30;99.90;;;;;;5065430;28;19909;-75
2022/08/31 07:22:46;;;;;;;;;;;15.40;99.90;;;;;;5073014;28;20388;-75
2022/08/31 07:25:13;;;;;;;;;;;15.30;99.90;;;;;;5072566;28;19916;-76
2022/08/31 07:27:38;;;;;;;;;;;15.30;99.90;;;;;;5071698;28;20281;-75
2022/08/31 07:30:04;;;;;;;;;;;15.30;99.90;;;;;;5072781;28;19909;-75
2022/08/31 07:32:30;;;;;;;;;;;15.40;99.90;;;;;;5072819;28;20312;-75
2022/08/31 07:34:55;;;;;;;;;;;15.40;99.90;;;;;;5072348;28;19908;-75
2022/08/31 07:42:49;;;;;;;;;;;15.40;99.90;;;;;;5072770;28;19939;-75
2022/08/31 07:45:20;;;;;;;;;;;15.60;99.90;;;;;;5072846;28;19912;-75
2022/08/31 07:47:47;;;;;;;;;;;15.60;99.90;;;;;;5072360;28;19923;-76
2022/08/31 07:50:14;;;;;;;;;;;15.60;99.90;;;;;;5072223;28;19915;-76
2022/08/31 07:52:47;;;;;;;;;;;15.60;99.90;;;;;;5071784;28;20281;-76
2022/08/31 07:55:14;;;;;;;;;;;15.80;99.90;;;;;;5072327;28;19908;-76
2022/08/31 07:57:43;;;;;;;;;;;15.80;99.90;;;;;;5072400;28;19966;-76
2022/08/31 08:00:13;;;;;;;;;;;15.80;99.90;;;;;;5070297;28;20422;-76
2022/08/31 08:02:39;;;;;;;;;;;15.80;99.90;;;;;;5081120;28;19909;-76
2022/08/31 08:05:08;;;;;;;;;;;15.80;99.90;;;;;;5071472;28;19995;-76
2022/08/31 08:07:34;;;;;;;;;;;15.80;99.90;;;;;;5070123;28;19919;-76
2022/08/31 08:10:01;;;;;;;;;;;15.80;99.90;;;;;;5072064;28;20309;-76
2022/08/31 08:12:27;;;;;;;;;;;15.80;99.90;;;;;;5068823;28;20419;-76
2022/08/31 08:14:56;;;;;;;;;;;15.80;99.90;;;;;;5077289;28;19912;-76
2022/08/31 08:17:21;;;;;;;;;;;15.90;99.90;;;;;;5071741;28;19908;-76
2022/08/31 08:19:48;;;;;;;;;;;15.90;99.90;;;;;;5071055;28;20219;-76
2022/08/31 08:22:14;;;;;;;;;;;16.00;99.90;;;;;;5071663;28;19908;-75
2022/08/31 08:24:41;;;;;;;;;;;16.20;99.90;;;;;;5070680;28;20125;-75
2022/08/31 08:27:06;;;;;;;;;;;16.10;99.90;;;;;;5071489;28;19912;-78
2022/08/31 08:29:32;;;;;;;;;;;16.30;99.90;;;;;;5071146;28;19973;-76
2022/08/31 08:32:00;;;;;;;;;;;16.30;99.90;;;;;;5071114;28;20003;-75
2022/08/31 08:34:26;;;;;;;;;;;16.40;99.90;;;;;;5069553;28;19931;-76
2022/08/31 08:36:51;;;;;;;;;;;16.60;99.90;;;;;;5071498;28;20363;-76
2022/08/31 08:39:17;;;;;;;;;;;16.50;99.90;;;;;;5071549;28;19908;-77
2022/08/31 08:41:44;;;;;;;;;;;16.70;99.90;;;;;;5070894;28;20012;-76
2022/08/31 08:44:11;;;;;;;;;;;16.70;99.90;;;;;;5071200;28;19962;-76
2022/08/31 08:46:59;;;;;;;;;;;16.90;99.90;;;;;;5071419;28;19920;-77
2022/08/31 08:49:24;;;;;;;;;;;17.00;99.90;;;;;;5070105;28;19985;-75
2022/08/31 08:51:54;;;;;;;;;;;17.10;99.90;;;;;;5071205;28;19909;-75
2022/08/31 08:54:27;;;;;;;;;;;17.10;99.90;;;;;;5070786;28;19909;-75
2022/08/31 08:56:52;;;;;;;;;;;17.20;99.90;;;;;;5067234;28;20315;-75
2022/08/31 08:59:18;;;;;;;;;;;17.40;99.90;;;;;;5071282;28;19909;-75
2022/08/31 09:01:46;;;;;;;;;;;17.40;99.90;;;;;;5070882;28;19915;-76
2022/08/31 09:04:12;;;;;;;;;;;17.50;99.90;;;;;;5069298;28;19908;-75
2022/08/31 09:06:55;;;;;;;;;;;17.60;99.90;;;;;;5070699;28;20369;-76
2022/08/31 09:09:39;;;;;;;;;;;17.90;99.90;;;;;;5071064;28;19908;-75
2022/08/31 09:12:08;;;;;;;;;;;18.00;99.90;;;;;;5067948;28;20244;-79
2022/08/31 09:14:52;;;;;;;;;;;17.90;99.90;;;;;;5073671;28;19935;-75
2022/08/31 09:17:28;;;;;;;;;;;17.40;99.90;;;;;;5065448;28;19909;-77
2022/08/31 09:19:59;;;;;;;;;;;17.20;99.90;;;;;;5070912;28;19908;-75
2022/08/31 09:22:25;;;;;;;;;;;17.10;99.90;;;;;;5068751;28;20345;-75
2022/08/31 09:24:54;;;;;;;;;;;16.70;99.90;;;;;;5069574;28;20278;-74
2022/08/31 09:27:44;;;;;;;;;;;16.70;99.90;;;;;;5071642;28;19921;-75
2022/08/31 09:30:12;;;;;;;;;;;16.70;99.90;;;;;;5070366;28;19908;-75
2022/08/31 09:32:38;;;;;;;;;;;16.90;99.90;;;;;;5070232;28;19916;-74
2022/08/31 09:35:05;;;;;;;;;;;16.90;99.90;;;;;;5067593;28;19908;-75
2022/08/31 09:37:47;;;;;;;;;;;16.90;99.90;;;;;;5075172;28;19909;-75
2022/08/31 09:40:15;;;;;;;;;;;16.90;99.90;;;;;;5070220;28;19962;-75
2022/08/31 09:42:41;;;;;;;;;;;17.00;99.90;;;;;;5075504;28;19912;-75
2022/08/31 09:45:11;;;;;;;;;;;17.00;99.90;;;;;;5075362;28;20254;-75
2022/08/31 09:47:54;;;;;;;;;;;17.00;99.90;;;;;;5070032;28;19966;-75
2022/08/31 09:50:32;;;;;;;;;;;17.00;99.90;;;;;;5069794;28;20328;-74
2022/08/31 09:56:04;;;;;;;;;;;17.10;99.90;;;;;;5074531;28;19938;-75
2022/08/31 09:58:32;;;;;;;;;;;17.10;99.90;;;;;;5064942;28;19920;-74
2022/08/31 10:01:11;;;;;;;;;;;17.00;99.90;;;;;;5068284;28;19912;-74
2022/08/31 10:03:37;;;;;;;;;;;16.80;99.90;;;;;;5064632;28;20012;-76
2022/08/31 10:06:03;;;;;;;;;;;16.80;99.90;;;;;;5071958;28;19909;-77
2022/08/31 10:08:56;;;;;;;;;;;16.90;99.90;;;;;;5066842;28;20332;-77
2022/08/31 10:11:25;;;;;;;;;;;16.90;99.90;;;;;;5061502;28;19917;-74
2022/08/31 10:14:03;;;;;;;;;;;16.90;99.90;;;;;;5069162;28;20361;-74
2022/08/31 10:16:36;;;;;;;;;;;16.90;99.90;;;;;;5074592;28;19912;-74
2022/08/31 10:19:05;;;;;;;;;;;17.00;99.90;;;;;;5068066;28;19963;-75
2022/08/31 10:21:30;;;;;;;;;;;17.30;99.90;;;;;;5074064;28;19954;-74
2022/08/31 10:23:58;;;;;;;;;;;17.30;99.90;;;;;;5073006;28;19993;-76
2022/08/31 10:26:35;;;;;;;;;;;17.70;99.90;;;;;;5071253;28;19939;-74
2022/08/31 10:29:12;;;;;;;;;;;17.80;99.90;;;;;;5074228;28;19909;-74
2022/08/31 10:31:44;;;;;;;;;;;17.90;99.90;;;;;;5072689;28;19995;-77
2022/08/31 10:37:23;;;;;;;;;;;18.00;99.90;;;;;;5066392;28;19915;-74
2022/08/31 10:39:51;;;;;;;;;;;18.00;99.90;;;;;;5066829;28;19915;-74
2022/08/31 10:42:20;;;;;;;;;;;17.80;99.90;;;;;;5073703;28;20269;-74
2022/08/31 10:44:55;;;;;;;;;;;17.60;99.90;;;;;;5069178;28;19916;-74
2022/08/31 10:47:22;;;;;;;;;;;17.50;99.90;;;;;;5066288;28;20427;-75
2022/08/31 10:49:51;;;;;;;;;;;17.30;99.90;;;;;;5073036;28;19954;-74
2022/08/31 10:52:41;;;;;;;;;;;17.30;99.90;;;;;;5073354;28;20281;-74
2022/08/31 10:55:27;;;;;;;;;;;17.40;99.90;;;;;;5062055;28;20277;-75
2022/08/31 10:57:58;;;;;;;;;;;17.30;99.90;;;;;;5068601;28;19919;-75
2022/08/31 11:00:40;;;;;;;;;;;17.30;99.90;;;;;;5069149;28;19916;-77
2022/08/31 11:03:12;;;;;;;;;;;17.20;99.90;;;;;;5063258;28;19924;-75
2022/08/31 11:05:43;;;;;;;;;;;17.20;99.90;;;;;;5064119;28;19915;-75
2022/08/31 11:08:27;;;;;;;;;;;17.20;99.90;;;;;;5070198;28;19966;-76
2022/08/31 11:10:54;;;;;;;;;;;17.30;99.90;;;;;;5064144;28;20336;-75
2022/08/31 11:13:24;;;;;;;;;;;17.50;99.90;;;;;;5058062;28;19923;-75
2022/08/31 11:16:12;;;;;;;;;;;17.70;99.90;;;;;;5062314;28;19950;-76
2022/08/31 11:18:39;;;;;;;;;;;17.80;99.90;;;;;;5071586;28;19912;-75
2022/08/31 11:21:24;;;;;;;;;;;17.90;99.90;;;;;;5072185;28;19938;-75
2022/08/31 11:23:49;;;;;;;;;;;18.10;99.90;;;;;;5069068;28;19951;-76
2022/08/31 11:26:27;;;;;;;;;;;18.20;99.90;;;;;;5069905;28;19979;-78
2022/08/31 11:29:00;;;;;;;;;;;18.40;99.90;;;;;;5068925;28;19920;-76
2022/08/31 11:31:29;;;;;;;;;;;18.30;99.90;;;;;;5064752;28;19916;-75
2022/08/31 11:33:56;;;;;;;;;;;18.40;99.90;;;;;;5063870;28;19912;-76
2022/08/31 11:36:40;;;;;;;;;;;18.30;99.90;;;;;;5071564;28;19956;-77
2022/08/31 11:39:06;;;;;;;;;;;18.40;99.90;;;;;;5067537;28;19916;-76
2022/08/31 11:41:33;;;;;;;;;;;18.20;99.90;;;;;;5069952;28;20320;-76
2022/08/31 11:44:03;;;;;;;;;;;18.10;99.90;;;;;;5070588;28;19932;-77
2022/08/31 11:46:58;;;;;;;;;;;18.30;99.90;;;;;;5055367;28;20566;-76
2022/08/31 11:49:39;;;;;;;;;;;18.30;99.90;;;;;;5070474;28;19996;-76
2022/08/31 11:52:09;;;;;;;;;;;18.40;99.90;;;;;;5070087;28;20376;-77
2022/08/31 11:54:40;;;;;;;;;;;18.30;99.90;;;;;;5068846;28;19962;-76
2022/08/31 11:57:07;;;;;;;;;;;18.40;99.90;;;;;;5069424;28;19970;-76
2022/08/31 11:59:38;;;;;;;;;;;18.50;99.90;;;;;;5071972;28;20374;-77
2022/08/31 12:02:19;;;;;;;;;;;18.70;99.90;;;;;;5069655;28;19951;-79
2022/08/31 12:04:50;;;;;;;;;;;18.90;99.90;;;;;;5072214;28;19909;-76
2022/08/31 12:07:26;;;;;;;;;;;19.00;99.90;;;;;;5072209;28;19938;-78
2022/08/31 12:09:52;;;;;;;;;;;19.10;99.90;;;;;;5071562;28;19956;-79
2022/08/31 12:12:36;;;;;;;;;;;19.40;99.90;;;;;;5070790;28;19948;-76
2022/08/31 12:15:21;;;;;;;;;;;19.20;99.90;;;;;;5070883;28;19959;-80
2022/08/31 12:17:50;;;;;;;;;;;19.70;99.90;;;;;;5068743;28;20332;-77
2022/08/31 12:20:30;;;;;;;;;;;19.80;99.90;;;;;;5071495;28;19916;-76
2022/08/31 12:25:43;;;;;;;;;;;19.90;99.90;;;;;;5066879;28;19935;-80
2022/08/31 12:28:11;;;;;;;;;;;19.80;99.90;;;;;;5071116;28;19912;-77
2022/08/31 12:30:46;;;;;;;;;;;19.50;99.90;;;;;;5070723;28;19959;-77
2022/08/31 12:33:13;;;;;;;;;;;19.30;99.90;;;;;;5067528;28;19912;-78
2022/08/31 12:35:39;;;;;;;;;;;19.10;99.90;;;;;;5063814;28;20297;-77
2022/08/31 12:38:09;;;;;;;;;;;19.30;99.90;;;;;;5070738;28;19913;-80
2022/08/31 12:40:34;;;;;;;;;;;19.80;99.90;;;;;;5065024;28;19916;-79
2022/08/31 12:43:14;;;;;;;;;;;19.90;99.90;;;;;;5070608;28;19912;-78
2022/08/31 12:45:42;;;;;;;;;;;19.80;99.90;;;;;;5068538;28;20365;-76
2022/08/31 12:48:11;;;;;;;;;;;19.80;99.90;;;;;;5071711;28;19912;-76
2022/08/31 12:50:36;;;;;;;;;;;20.10;99.90;;;;;;5070659;28;19908;-76
2022/08/31 12:53:11;;;;;;;;;;;20.20;99.90;;;;;;5071673;28;19909;-76
2022/08/31 12:55:42;;;;;;;;;;;20.30;99.90;;;;;;5070227;28;20478;-77
2022/08/31 12:58:08;;;;;;;;;;;19.90;99.90;;;;;;5068918;28;19909;-77
2022/08/31 13:00:38;;;;;;;;;;;19.90;99.90;;;;;;5068962;28;19916;-77
2022/08/31 13:03:16;;;;;;;;;;;19.90;99.90;;;;;;5068753;28;19908;-78
2022/08/31 13:05:45;;;;;;;;;;;19.90;99.90;;;;;;5064665;28;19952;-79
2022/08/31 13:08:23;;;;;;;;;;;19.80;99.90;;;;;;5068315;28;19912;-79
2022/08/31 13:10:49;;;;;;;;;;;19.90;99.90;;;;;;5079837;28;19913;-83
2022/08/31 13:13:25;;;;;;;;;;;19.90;99.90;;;;;;5088344;28;19919;-83
2022/08/31 13:15:56;;;;;;;;;;;19.80;99.90;;;;;;5094891;28;19903;-83
2022/08/31 13:18:23;;;;;;;;;;;19.90;99.90;;;;;;5097681;28;19921;-83
2022/08/31 13:20:52;;;;;;;;;;;20.20;99.90;;;;;;5096890;28;19897;-84
2022/08/31 13:23:29;;;;;;;;;;;19.90;99.90;;;;;;5096634;28;19939;-83
2022/08/31 13:25:59;;;;;;;;;;;20.00;99.90;;;;;;5085673;28;20012;-76
2022/08/31 13:28:29;;;;;;;;;;;19.90;99.90;;;;;;5071678;28;19999;-77
2022/08/31 13:31:00;;;;;;;;;;;19.80;99.90;;;;;;5071480;28;19909;-77
2022/08/31 13:33:38;;;;;;;;;;;19.60;99.90;;;;;;5066391;28;19968;-76
2022/08/31 13:36:11;;;;;;;;;;;19.90;99.90;;;;;;5071440;28;19908;-78
2022/08/31 13:38:45;;;;;;;;;;;19.60;99.90;;;;;;5071051;28;19915;-77
2022/08/31 13:41:21;;;;;;;;;;;19.90;99.90;;;;;;5082925;28;19966;-83
2022/08/31 13:43:57;;;;;;;;;;;19.50;99.90;;;;;;5097135;28;19923;-83
2022/08/31 13:46:46;;;;;;;;;;;19.70;99.90;;;;;;5097563;28;19905;-83
2022/08/31 13:49:31;;;;;;;;;;;19.70;99.90;;;;;;5092911;28;19896;-83
2022/08/31 13:51:57;;;;;;;;;;;19.70;99.90;;;;;;5097252;28;19963;-84
2022/08/31 13:54:30;;;;;;;;;;;19.40;99.90;;;;;;5090248;28;19937;-84
2022/08/31 13:57:07;;;;;;;;;;;19.30;99.90;;;;;;5074359;28;20347;-78
2022/08/31 13:59:36;;;;;;;;;;;19.40;99.90;;;;;;5069787;28;19908;-81
2022/08/31 14:02:14;;;;;;;;;;;19.30;99.90;;;;;;5069006;28;20384;-77
2022/08/31 14:04:42;;;;;;;;;;;19.30;99.90;;;;;;5068603;28;19961;-77
2022/08/31 14:07:22;;;;;;;;;;;19.10;99.90;;;;;;5065568;28;19982;-77
2022/08/31 14:09:54;;;;;;;;;;;19.20;99.90;;;;;;5059279;28;20374;-77
2022/08/31 14:12:35;;;;;;;;;;;19.70;99.90;;;;;;5060676;28;19975;-77
2022/08/31 14:15:07;;;;;;;;;;;19.90;99.90;;;;;;5061292;28;19943;-77
2022/08/31 14:17:34;;;;;;;;;;;20.10;99.90;;;;;;5068359;28;20011;-78
2022/08/31 14:20:18;;;;;;;;;;;20.10;99.90;;;;;;5068885;28;19908;-77
2022/08/31 14:22:45;;;;;;;;;;;19.90;99.90;;;;;;5073483;28;19915;-77
2022/08/31 14:25:11;;;;;;;;;;;19.90;99.90;;;;;;5073962;28;19915;-78
2022/08/31 14:27:41;;;;;;;;;;;19.80;99.90;;;;;;5073392;28;19916;-77
2022/08/31 14:30:08;;;;;;;;;;;19.60;99.90;;;;;;5074020;28;20322;-77
2022/08/31 14:32:33;;;;;;;;;;;19.50;99.90;;;;;;5072021;28;19909;-78
2022/08/31 14:35:01;;;;;;;;;;;19.70;99.90;;;;;;5075777;28;19914;-75
2022/08/31 14:37:29;;;;;;;;;;;19.70;99.90;;;;;;5074054;28;19909;-75
2022/08/31 14:39:59;;;;;;;;;;;19.90;99.90;;;;;;5073856;28;19909;-78
2022/08/31 14:42:27;;;;;;;;;;;19.90;99.90;;;;;;5072383;28;19912;-78
2022/08/31 14:44:57;;;;;;;;;;;19.70;99.90;;;;;;5073533;28;19908;-77